Time;durP1;ratioP1;P1;durP2;ratioP2;P2;SDS_P1;SDS_P2;PMS_P1;PMS_P2;Temp;Humidity;BMP_temperature;BMP_pressure;BME280_temperature;BME280_humidity;BME280_pressure;Samples;Min_cycle;Max_cycle;Signal;HPM_P1;HPM_P2
2022/01/06 00:01:31;;;;;;;;;31.25;24.25;;;;;;;;5051138;28;45466;-68
2022/01/06 00:03:56;;;;;;;;;26.00;24.00;;;;;;;;5055531;28;45449;-68
2022/01/06 00:06:23;;;;;;;;;32.25;30.75;;;;;;;;5054348;28;47041;-68
2022/01/06 00:08:48;;;;;;;;;29.75;26.50;;;;;;;;5055063;28;45454;-68
2022/01/06 00:11:14;;;;;;;;;29.75;25.00;;;;;;;;5055430;28;45395;-68
2022/01/06 00:24:23;;;;;;;;;34.75;31.00;;;;;;;;4972793;28;45664;-67
2022/01/06 00:26:51;;;;;;;;;41.25;37.75;;;;;;;;4973262;28;45548;-68
2022/01/06 00:29:17;;;;;;;;;30.50;30.00;;;;;;;;4973774;28;45425;-68
2022/01/06 00:31:42;;;;;;;;;28.00;27.25;;;;;;;;4977113;28;45436;-67
2022/01/06 00:34:10;;;;;;;;;38.75;28.50;;;;;;;;4977175;28;45437;-68
2022/01/06 00:36:42;;;;;;;;;30.00;26.00;;;;;;;;4975738;28;46971;-68
2022/01/06 00:39:08;;;;;;;;;30.50;24.00;;;;;;;;4965110;28;45715;-68
2022/01/06 00:41:34;;;;;;;;;35.50;27.50;;;;;;;;4974326;28;45463;-68
2022/01/06 00:44:00;;;;;;;;;35.00;28.00;;;;;;;;4976624;28;45579;-68
2022/01/06 00:46:25;;;;;;;;;35.25;29.50;;;;;;;;4976815;28;47133;-68
2022/01/06 00:48:51;;;;;;;;;35.00;29.50;;;;;;;;4976607;28;45483;-68
2022/01/06 00:51:16;;;;;;;;;32.00;29.00;;;;;;;;4975816;28;45370;-68
2022/01/06 00:53:41;;;;;;;;;27.75;25.50;;;;;;;;4976635;28;45536;-68
2022/01/06 00:56:06;;;;;;;;;35.25;31.00;;;;;;;;4976670;28;45619;-68
2022/01/06 00:58:31;;;;;;;;;33.50;31.50;;;;;;;;5011975;28;45443;-68
2022/01/06 01:01:00;;;;;;;;;30.25;27.50;;;;;;;;5058638;28;45330;-68
2022/01/06 01:03:27;;;;;;;;;25.00;25.00;;;;;;;;5057589;28;45458;-68
2022/01/06 01:05:53;;;;;;;;;23.75;23.00;;;;;;;;5057471;28;46460;-68
2022/01/06 01:08:19;;;;;;;;;29.75;26.50;;;;;;;;5057993;28;45486;-68
2022/01/06 01:10:45;;;;;;;;;27.25;26.50;;;;;;;;5057958;28;45441;-68
2022/01/06 01:13:12;;;;;;;;;30.75;26.50;;;;;;;;5058377;28;45586;-68
2022/01/06 01:15:52;;;;;;;;;30.75;26.00;;;;;;;;5056960;28;45543;-68
2022/01/06 01:18:21;;;;;;;;;31.75;23.50;;;;;;;;5055518;28;45371;-67
2022/01/06 01:20:47;;;;;;;;;28.75;26.00;;;;;;;;5057284;28;45413;-67
2022/01/06 01:23:12;;;;;;;;;28.50;27.75;;;;;;;;5039712;28;45371;-69
2022/01/06 01:25:37;;;;;;;;;26.00;26.00;;;;;;;;5057500;28;46984;-69
2022/01/06 01:28:04;;;;;;;;;31.00;24.25;;;;;;;;5057825;28;45363;-68
2022/01/06 01:30:32;;;;;;;;;30.00;27.50;;;;;;;;5057463;28;45433;-68
2022/01/06 01:32:58;;;;;;;;;31.00;27.50;;;;;;;;5057234;28;45533;-68
2022/01/06 01:35:24;;;;;;;;;30.25;25.25;;;;;;;;5057134;28;46381;-69
2022/01/06 01:37:49;;;;;;;;;26.00;25.75;;;;;;;;5057594;28;45363;-69
2022/01/06 01:40:15;;;;;;;;;29.50;24.25;;;;;;;;5058182;28;45464;-68
2022/01/06 01:42:40;;;;;;;;;28.50;24.50;;;;;;;;5038558;28;45416;-68
2022/01/06 01:45:06;;;;;;;;;23.00;22.50;;;;;;;;5057110;28;45395;-68
2022/01/06 01:47:44;;;;;;;;;25.50;21.50;;;;;;;;5057310;28;45353;-69
2022/01/06 01:50:16;;;;;;;;;23.50;21.25;;;;;;;;5056999;28;45474;-68
2022/01/06 01:52:56;;;;;;;;;24.75;20.00;;;;;;;;5057336;28;45585;-68
2022/01/06 01:55:23;;;;;;;;;34.00;28.25;;;;;;;;5057231;28;47102;-68
2022/01/06 01:57:49;;;;;;;;;25.00;22.75;;;;;;;;5057557;28;45378;-68
2022/01/06 02:00:15;;;;;;;;;23.75;23.00;;;;;;;;5057061;28;45505;-69
2022/01/06 02:02:41;;;;;;;;;28.00;22.25;;;;;;;;5057046;28;45352;-68
2022/01/06 02:05:07;;;;;;;;;24.25;22.75;;;;;;;;5057324;28;46176;-68
2022/01/06 02:07:33;;;;;;;;;22.50;19.75;;;;;;;;5057385;28;45285;-68
2022/01/06 02:09:59;;;;;;;;;29.50;25.25;;;;;;;;5057889;28;45257;-68
2022/01/06 02:12:30;;;;;;;;;32.00;29.50;;;;;;;;5052411;28;45480;-68
2022/01/06 02:14:55;;;;;;;;;39.75;29.75;;;;;;;;5058575;28;46389;-68
2022/01/06 02:17:21;;;;;;;;;38.00;35.50;;;;;;;;5056612;28;46218;-68
2022/01/06 02:19:51;;;;;;;;;35.25;32.25;;;;;;;;5057110;28;45388;-68
2022/01/06 02:22:16;;;;;;;;;29.75;29.50;;;;;;;;5057327;28;45291;-71
2022/01/06 02:24:42;;;;;;;;;31.00;29.75;;;;;;;;5056913;28;45484;-68
2022/01/06 02:27:07;;;;;;;;;28.75;26.25;;;;;;;;5056087;28;45371;-68
2022/01/06 02:29:32;;;;;;;;;34.50;24.75;;;;;;;;5056801;28;45463;-68
2022/01/06 02:31:57;;;;;;;;;31.25;28.75;;;;;;;;5056394;28;45513;-68
2022/01/06 02:34:23;;;;;;;;;35.00;29.50;;;;;;;;5055615;28;45495;-68
2022/01/06 02:36:48;;;;;;;;;35.50;28.75;;;;;;;;5038557;28;45626;-69
2022/01/06 02:39:13;;;;;;;;;28.00;26.25;;;;;;;;5055913;28;45303;-69
2022/01/06 02:41:38;;;;;;;;;34.00;26.00;;;;;;;;5056664;28;45249;-69
2022/01/06 02:44:04;;;;;;;;;28.25;28.25;;;;;;;;5056332;28;45928;-68
2022/01/06 02:46:29;;;;;;;;;30.25;28.50;;;;;;;;5056335;28;46916;-68
2022/01/06 02:48:54;;;;;;;;;32.75;22.00;;;;;;;;5056498;28;45351;-68
2022/01/06 02:51:19;;;;;;;;;35.25;31.25;;;;;;;;5055958;28;45444;-68
2022/01/06 02:53:44;;;;;;;;;27.50;23.50;;;;;;;;5055167;28;46320;-69
2022/01/06 02:56:10;;;;;;;;;36.00;29.50;;;;;;;;5054651;28;45566;-68
2022/01/06 02:58:35;;;;;;;;;34.75;30.50;;;;;;;;5056446;28;45383;-69
2022/01/06 03:01:00;;;;;;;;;43.25;38.25;;;;;;;;5056161;28;45360;-69
2022/01/06 03:03:25;;;;;;;;;38.00;34.75;;;;;;;;5055796;28;46922;-68
2022/01/06 03:05:50;;;;;;;;;49.75;39.75;;;;;;;;5056147;28;45458;-68
2022/01/06 03:08:18;;;;;;;;;45.25;38.50;;;;;;;;5056246;28;45461;-69
2022/01/06 03:10:44;;;;;;;;;54.50;41.75;;;;;;;;5055930;28;45490;-68
2022/01/06 03:13:09;;;;;;;;;40.00;29.50;;;;;;;;5056115;28;45948;-68
2022/01/06 03:15:35;;;;;;;;;46.25;37.00;;;;;;;;5054853;28;45394;-68
2022/01/06 03:18:01;;;;;;;;;41.50;36.00;;;;;;;;5056334;28;45454;-68
2022/01/06 03:20:27;;;;;;;;;28.75;24.25;;;;;;;;5055884;28;45407;-68
2022/01/06 03:22:53;;;;;;;;;44.25;37.25;;;;;;;;5055847;28;46060;-68
2022/01/06 03:25:18;;;;;;;;;48.75;35.25;;;;;;;;5055845;28;45522;-68
2022/01/06 03:27:44;;;;;;;;;36.75;32.75;;;;;;;;5055956;28;45429;-69
2022/01/06 03:30:11;;;;;;;;;35.75;31.50;;;;;;;;5054796;28;45448;-68
2022/01/06 03:32:36;;;;;;;;;40.25;34.75;;;;;;;;5055462;28;46362;-69
2022/01/06 03:35:02;;;;;;;;;46.00;35.50;;;;;;;;5053692;28;45699;-68
2022/01/06 03:37:27;;;;;;;;;40.50;35.50;;;;;;;;5056240;28;45440;-68
2022/01/06 03:39:53;;;;;;;;;33.50;29.00;;;;;;;;5056048;28;45455;-68
2022/01/06 03:42:18;;;;;;;;;34.75;30.25;;;;;;;;5055161;28;46146;-68
2022/01/06 03:44:44;;;;;;;;;28.25;23.75;;;;;;;;5055354;28;45390;-68
2022/01/06 03:47:09;;;;;;;;;31.50;26.00;;;;;;;;5055804;28;45416;-68
2022/01/06 03:49:34;;;;;;;;;29.75;26.25;;;;;;;;5055620;28;45340;-69
2022/01/06 03:52:00;;;;;;;;;27.50;21.25;;;;;;;;5054498;28;46324;-69
2022/01/06 03:54:25;;;;;;;;;28.00;24.25;;;;;;;;5055095;28;45556;-68
2022/01/06 03:56:50;;;;;;;;;34.50;29.25;;;;;;;;5055451;28;45364;-68
2022/01/06 03:59:16;;;;;;;;;30.00;23.50;;;;;;;;5054965;28;45347;-69
2022/01/06 04:01:41;;;;;;;;;30.75;25.75;;;;;;;;5055275;28;47256;-68
2022/01/06 04:04:06;;;;;;;;;27.25;23.25;;;;;;;;5055685;28;45429;-68
2022/01/06 04:06:31;;;;;;;;;25.00;22.50;;;;;;;;5058416;28;45253;-71
2022/01/06 04:08:57;;;;;;;;;21.50;20.75;;;;;;;;5059225;28;45485;-69
2022/01/06 04:11:22;;;;;;;;;20.25;19.00;;;;;;;;5058642;28;46382;-69
2022/01/06 04:13:47;;;;;;;;;18.75;16.50;;;;;;;;5058332;28;45421;-69
2022/01/06 04:16:15;;;;;;;;;19.75;17.00;;;;;;;;5059078;28;45429;-69
2022/01/06 04:18:40;;;;;;;;;20.75;17.75;;;;;;;;5058367;28;45502;-69
2022/01/06 04:21:07;;;;;;;;;16.25;16.25;;;;;;;;5058091;28;46294;-69
2022/01/06 04:23:32;;;;;;;;;22.25;20.75;;;;;;;;5058514;28;45316;-69
2022/01/06 04:25:57;;;;;;;;;19.50;17.25;;;;;;;;5058703;28;45569;-69
2022/01/06 04:28:22;;;;;;;;;15.50;14.00;;;;;;;;5058466;28;45441;-69
2022/01/06 04:30:47;;;;;;;;;15.25;14.00;;;;;;;;5058566;28;46198;-69
2022/01/06 04:33:13;;;;;;;;;16.75;15.00;;;;;;;;5058066;28;45347;-69
2022/01/06 04:35:38;;;;;;;;;21.50;16.00;;;;;;;;5058555;28;45455;-70
2022/01/06 04:38:03;;;;;;;;;20.75;15.25;;;;;;;;5058158;28;45412;-69
2022/01/06 04:40:28;;;;;;;;;20.25;19.25;;;;;;;;5058033;28;45450;-69
2022/01/06 04:42:53;;;;;;;;;20.75;19.50;;;;;;;;5057339;28;45245;-69
2022/01/06 04:45:19;;;;;;;;;26.25;18.25;;;;;;;;5057475;28;45233;-70
2022/01/06 04:47:44;;;;;;;;;19.25;17.50;;;;;;;;5058038;28;45367;-70
2022/01/06 04:50:09;;;;;;;;;18.50;16.00;;;;;;;;5057328;28;46170;-69
2022/01/06 04:52:34;;;;;;;;;19.50;15.50;;;;;;;;5039615;28;45495;-69
2022/01/06 04:55:00;;;;;;;;;17.25;15.50;;;;;;;;5056453;28;45273;-70
2022/01/06 04:57:25;;;;;;;;;19.50;16.50;;;;;;;;5056807;28;45229;-69
2022/01/06 04:59:50;;;;;;;;;22.50;16.00;;;;;;;;5057697;28;45297;-69
2022/01/06 05:02:15;;;;;;;;;20.00;18.00;;;;;;;;5057775;28;45671;-69
2022/01/06 05:04:41;;;;;;;;;17.00;17.00;;;;;;;;5056260;28;45338;-70
2022/01/06 05:07:06;;;;;;;;;19.50;15.25;;;;;;;;5058077;28;45412;-69
2022/01/06 05:09:31;;;;;;;;;21.25;16.50;;;;;;;;5056322;28;46402;-68
2022/01/06 05:11:56;;;;;;;;;17.00;14.75;;;;;;;;5057268;28;45170;-69
2022/01/06 05:14:22;;;;;;;;;29.25;21.50;;;;;;;;5056757;28;45393;-68
2022/01/06 05:16:47;;;;;;;;;24.75;22.75;;;;;;;;5056062;28;45432;-68
2022/01/06 05:19:12;;;;;;;;;25.25;21.00;;;;;;;;5057075;28;46421;-69
2022/01/06 05:21:37;;;;;;;;;16.50;16.00;;;;;;;;5056538;28;45458;-69
2022/01/06 05:24:11;;;;;;;;;22.00;18.25;;;;;;;;5057389;28;45291;-69
2022/01/06 05:26:38;;;;;;;;;19.25;17.25;;;;;;;;5056845;28;45470;-68
2022/01/06 05:29:03;;;;;;;;;22.00;21.50;;;;;;;;5056542;28;46044;-68
2022/01/06 05:31:28;;;;;;;;;35.75;26.50;;;;;;;;5056913;28;45495;-68
2022/01/06 05:33:53;;;;;;;;;40.00;28.50;;;;;;;;5056732;28;45277;-68
2022/01/06 05:36:19;;;;;;;;;30.00;24.00;;;;;;;;5056265;28;45355;-68
2022/01/06 05:38:44;;;;;;;;;37.75;31.00;;;;;;;;5038294;28;48216;-68
2022/01/06 05:41:09;;;;;;;;;38.75;33.75;;;;;;;;5055842;28;45424;-68
2022/01/06 05:43:34;;;;;;;;;26.00;24.00;;;;;;;;5055874;28;45539;-69
2022/01/06 05:46:00;;;;;;;;;26.00;22.50;;;;;;;;5056081;28;45308;-69
2022/01/06 05:48:25;;;;;;;;;24.25;21.00;;;;;;;;5051136;28;47290;-69
2022/01/06 05:50:51;;;;;;;;;21.00;15.50;;;;;;;;5055893;28;45537;-69
2022/01/06 05:53:16;;;;;;;;;15.50;15.50;;;;;;;;5054601;28;45379;-68
2022/01/06 05:55:42;;;;;;;;;15.50;15.50;;;;;;;;5054346;28;45505;-69
2022/01/06 05:58:07;;;;;;;;;21.00;20.00;;;;;;;;5055982;28;46259;-69
2022/01/06 06:00:32;;;;;;;;;24.50;20.50;;;;;;;;5055086;28;45423;-69
2022/01/06 06:02:57;;;;;;;;;22.50;20.25;;;;;;;;5056352;28;45336;-69
2022/01/06 06:05:23;;;;;;;;;34.75;28.25;;;;;;;;5055191;28;45409;-68
2022/01/06 06:07:48;;;;;;;;;23.00;18.25;;;;;;;;5055555;28;46125;-68
2022/01/06 06:10:13;;;;;;;;;22.25;20.50;;;;;;;;5055316;28;45292;-68
2022/01/06 06:12:38;;;;;;;;;29.00;21.00;;;;;;;;5055121;28;45400;-68
2022/01/06 06:15:04;;;;;;;;;28.00;25.00;;;;;;;;5037868;28;45431;-68
2022/01/06 06:17:29;;;;;;;;;20.00;17.00;;;;;;;;5055210;28;45462;-68
2022/01/06 06:19:55;;;;;;;;;21.00;19.75;;;;;;;;5055286;28;45415;-68
2022/01/06 06:22:20;;;;;;;;;22.50;19.00;;;;;;;;5055631;28;45348;-68
2022/01/06 06:24:45;;;;;;;;;26.75;21.25;;;;;;;;5055274;28;45382;-67
2022/01/06 06:27:10;;;;;;;;;19.75;19.00;;;;;;;;5036252;28;47124;-68
2022/01/06 06:29:37;;;;;;;;;24.50;24.00;;;;;;;;5054141;28;45234;-68
2022/01/06 06:32:02;;;;;;;;;25.50;23.00;;;;;;;;5054615;28;45450;-68
2022/01/06 06:34:27;;;;;;;;;28.50;21.00;;;;;;;;5055586;28;45477;-67
2022/01/06 06:36:52;;;;;;;;;17.75;17.00;;;;;;;;5054956;28;46280;-68
2022/01/06 06:39:18;;;;;;;;;23.25;20.25;;;;;;;;5053803;28;45252;-68
2022/01/06 06:41:43;;;;;;;;;17.75;17.50;;;;;;;;5055155;28;45694;-67
2022/01/06 06:44:08;;;;;;;;;24.50;20.75;;;;;;;;5054774;28;45374;-67
2022/01/06 06:46:33;;;;;;;;;22.00;19.25;;;;;;;;5054570;28;47368;-68
2022/01/06 06:48:58;;;;;;;;;26.25;21.00;;;;;;;;5036709;28;45446;-68
2022/01/06 06:51:24;;;;;;;;;21.75;20.00;;;;;;;;5053647;28;45328;-68
2022/01/06 06:53:49;;;;;;;;;22.00;17.25;;;;;;;;5054678;28;45372;-68
2022/01/06 06:56:14;;;;;;;;;21.75;20.75;;;;;;;;5054936;28;45901;-67
2022/01/06 06:58:39;;;;;;;;;21.25;18.25;;;;;;;;5054850;28;45677;-67
2022/01/06 07:01:04;;;;;;;;;19.00;19.00;;;;;;;;5054801;28;45418;-68
2022/01/06 07:03:30;;;;;;;;;22.25;16.75;;;;;;;;5052657;28;45534;-70
2022/01/06 07:05:55;;;;;;;;;22.00;18.00;;;;;;;;5054471;28;46219;-68
2022/01/06 07:08:20;;;;;;;;;20.50;19.00;;;;;;;;5053392;28;45395;-67
2022/01/06 07:10:45;;;;;;;;;23.50;20.75;;;;;;;;5053157;28;45420;-67
2022/01/06 07:13:10;;;;;;;;;19.50;17.75;;;;;;;;5054927;28;45529;-69
2022/01/06 07:15:41;;;;;;;;;16.00;14.50;;;;;;;;5053288;28;46986;-68
2022/01/06 07:18:06;;;;;;;;;23.50;21.25;;;;;;;;5054583;28;45463;-69
2022/01/06 07:20:31;;;;;;;;;25.25;20.50;;;;;;;;5053721;28;45542;-68
2022/01/06 07:22:57;;;;;;;;;8.50;5.50;;;;;;;;5052222;28;45408;-67
2022/01/06 07:25:22;;;;;;;;;25.50;21.25;;;;;;;;5053199;28;46188;-67
2022/01/06 07:27:47;;;;;;;;;25.25;22.00;;;;;;;;5053244;28;45528;-68
2022/01/06 07:30:12;;;;;;;;;21.75;20.75;;;;;;;;5052980;28;45371;-68
2022/01/06 07:32:42;;;;;;;;;24.75;22.25;;;;;;;;5052432;28;45529;-67
2022/01/06 07:35:07;;;;;;;;;22.50;20.25;;;;;;;;5053227;28;46314;-68
2022/01/06 07:37:32;;;;;;;;;21.00;20.75;;;;;;;;5052970;28;45318;-68
2022/01/06 07:39:58;;;;;;;;;24.00;21.75;;;;;;;;5051877;28;45308;-69
2022/01/06 07:42:23;;;;;;;;;20.75;19.75;;;;;;;;5052817;28;45299;-67
2022/01/06 07:44:49;;;;;;;;;24.50;21.75;;;;;;;;5052847;28;45329;-69
2022/01/06 07:47:15;;;;;;;;;27.25;22.75;;;;;;;;5052583;28;45300;-69
2022/01/06 07:49:40;;;;;;;;;22.25;19.00;;;;;;;;5034499;28;45344;-67
2022/01/06 07:52:05;;;;;;;;;26.75;22.50;;;;;;;;5053893;28;45163;-68
2022/01/06 07:54:30;;;;;;;;;18.50;16.25;;;;;;;;5052031;28;47175;-69
2022/01/06 07:56:56;;;;;;;;;30.25;27.25;;;;;;;;5053349;28;45526;-69
2022/01/06 07:59:21;;;;;;;;;25.50;21.50;;;;;;;;5053402;28;45509;-68
2022/01/06 08:01:46;;;;;;;;;20.25;17.25;;;;;;;;5053630;28;45146;-68
2022/01/06 08:04:11;;;;;;;;;23.25;20.00;;;;;;;;5053895;28;46405;-68
2022/01/06 08:06:36;;;;;;;;;25.00;21.25;;;;;;;;5051644;28;45448;-68
2022/01/06 08:09:02;;;;;;;;;24.50;23.25;;;;;;;;5053924;28;45509;-68
2022/01/06 08:11:27;;;;;;;;;17.50;17.50;;;;;;;;5054871;28;45329;-67
2022/01/06 08:13:52;;;;;;;;;27.25;22.25;;;;;;;;5053689;28;45462;-68
2022/01/06 08:16:17;;;;;;;;;20.50;18.00;;;;;;;;5053745;28;45391;-68
2022/01/06 08:18:43;;;;;;;;;24.25;20.00;;;;;;;;5053036;28;45608;-68
2022/01/06 08:21:08;;;;;;;;;23.50;20.75;;;;;;;;5052313;28;45393;-68
2022/01/06 08:23:33;;;;;;;;;31.00;22.00;;;;;;;;5053132;28;47011;-67
2022/01/06 08:25:58;;;;;;;;;28.25;22.75;;;;;;;;5053570;28;45293;-68
2022/01/06 08:28:24;;;;;;;;;21.75;19.00;;;;;;;;5054117;28;45383;-69
2022/01/06 08:30:49;;;;;;;;;14.50;13.25;;;;;;;;5053870;28;45452;-67
2022/01/06 08:33:15;;;;;;;;;23.00;20.75;;;;;;;;5052492;28;46363;-68
2022/01/06 08:35:41;;;;;;;;;29.50;21.50;;;;;;;;5052773;28;47847;-67
2022/01/06 08:38:06;;;;;;;;;24.00;23.75;;;;;;;;5053154;28;45396;-68
2022/01/06 08:40:32;;;;;;;;;27.00;21.75;;;;;;;;5053582;28;45426;-67
2022/01/06 08:42:57;;;;;;;;;22.25;21.75;;;;;;;;5053113;28;45577;-68
2022/01/06 08:45:22;;;;;;;;;21.50;20.50;;;;;;;;5052566;28;45413;-68
2022/01/06 08:47:48;;;;;;;;;26.25;21.75;;;;;;;;5053412;28;45822;-67
2022/01/06 08:50:14;;;;;;;;;26.75;18.00;;;;;;;;5053229;28;45316;-68
2022/01/06 08:52:39;;;;;;;;;25.00;23.00;;;;;;;;5055211;28;46115;-67
2022/01/06 08:55:06;;;;;;;;;28.00;28.00;;;;;;;;5056263;28;45536;-68
2022/01/06 08:57:31;;;;;;;;;25.75;20.50;;;;;;;;5055353;28;45410;-68
2022/01/06 08:59:57;;;;;;;;;28.50;24.50;;;;;;;;5056016;28;45360;-68
2022/01/06 09:02:22;;;;;;;;;27.00;23.75;;;;;;;;5056184;28;46431;-68
2022/01/06 09:04:47;;;;;;;;;34.00;29.50;;;;;;;;5056021;28;45530;-69
2022/01/06 09:07:13;;;;;;;;;31.50;24.50;;;;;;;;5054664;28;45499;-68
2022/01/06 09:09:41;;;;;;;;;27.00;21.75;;;;;;;;5055098;28;45375;-67
2022/01/06 09:12:07;;;;;;;;;28.00;22.25;;;;;;;;5055679;28;46388;-68
2022/01/06 09:14:32;;;;;;;;;25.50;20.25;;;;;;;;5056331;28;45435;-67
2022/01/06 09:16:58;;;;;;;;;22.00;20.50;;;;;;;;5056464;28;45390;-68
2022/01/06 09:19:23;;;;;;;;;19.25;17.75;;;;;;;;5055799;28;45362;-68
2022/01/06 09:21:48;;;;;;;;;21.00;19.75;;;;;;;;5055645;28;46130;-68
2022/01/06 09:24:14;;;;;;;;;22.00;21.50;;;;;;;;5036858;28;45470;-67
2022/01/06 09:26:39;;;;;;;;;21.00;18.50;;;;;;;;5038110;28;45403;-68
2022/01/06 09:29:05;;;;;;;;;21.50;19.75;;;;;;;;5056559;28;45450;-68
2022/01/06 09:31:32;;;;;;;;;27.75;23.25;;;;;;;;5056516;28;46155;-68
2022/01/06 09:33:59;;;;;;;;;26.00;20.50;;;;;;;;5055983;28;45256;-67
2022/01/06 09:36:24;;;;;;;;;25.75;22.00;;;;;;;;5055376;28;45344;-68
2022/01/06 09:38:50;;;;;;;;;26.00;21.75;;;;;;;;5055618;28;45606;-68
2022/01/06 09:41:16;;;;;;;;;23.25;21.25;;;;;;;;5055404;28;45570;-67
2022/01/06 09:43:41;;;;;;;;;22.00;20.75;;;;;;;;5055682;28;45575;-68
2022/01/06 09:46:08;;;;;;;;;23.50;22.50;;;;;;;;5056046;28;45624;-68
2022/01/06 09:48:35;;;;;;;;;23.25;21.50;;;;;;;;5053150;28;45515;-68
2022/01/06 09:51:00;;;;;;;;;40.50;30.00;;;;;;;;5055110;28;47229;-67
2022/01/06 09:53:26;;;;;;;;;23.75;22.50;;;;;;;;5055575;28;45533;-67
2022/01/06 09:55:52;;;;;;;;;22.00;19.75;;;;;;;;5055450;28;46109;-68
2022/01/06 09:58:21;;;;;;;;;28.50;22.25;;;;;;;;5055903;28;45427;-68
2022/01/06 10:00:46;;;;;;;;;24.75;20.75;;;;;;;;5055352;28;47125;-68
2022/01/06 10:03:11;;;;;;;;;26.50;24.00;;;;;;;;5054395;28;45426;-67
2022/01/06 10:05:39;;;;;;;;;25.25;24.50;;;;;;;;5054979;28;45456;-67
2022/01/06 10:08:05;;;;;;;;;26.25;24.00;;;;;;;;5055044;28;45315;-67
2022/01/06 10:10:30;;;;;;;;;32.00;27.75;;;;;;;;5054772;28;47399;-67
2022/01/06 10:12:57;;;;;;;;;35.25;28.75;;;;;;;;5053910;28;45598;-67
2022/01/06 10:15:23;;;;;;;;;32.00;27.25;;;;;;;;5054421;28;45281;-69
2022/01/06 10:17:48;;;;;;;;;36.75;29.75;;;;;;;;5054780;28;45550;-67
2022/01/06 10:20:18;;;;;;;;;28.50;25.00;;;;;;;;5054990;28;45423;-69
2022/01/06 10:22:47;;;;;;;;;28.00;21.25;;;;;;;;5054923;28;45526;-67
2022/01/06 10:25:13;;;;;;;;;28.00;26.25;;;;;;;;5055251;28;45317;-69
2022/01/06 10:27:38;;;;;;;;;21.25;20.25;;;;;;;;5053897;28;45530;-68
2022/01/06 10:30:05;;;;;;;;;29.00;24.25;;;;;;;;5054672;28;46580;-68
2022/01/06 10:32:31;;;;;;;;;23.75;21.75;;;;;;;;5055084;28;45456;-67
2022/01/06 10:35:02;;;;;;;;;22.25;19.75;;;;;;;;5054579;28;45509;-69
2022/01/06 10:37:27;;;;;;;;;28.00;22.75;;;;;;;;5055020;28;45449;-67
2022/01/06 10:40:13;;;;;;;;;24.25;18.75;;;;;;;;5053899;28;46150;-68
2022/01/06 10:42:39;;;;;;;;;19.00;18.75;;;;;;;;5050117;28;45542;-68
2022/01/06 10:45:12;;;;;;;;;16.75;13.75;;;;;;;;5054291;28;45505;-68
2022/01/06 10:47:40;;;;;;;;;18.25;17.75;;;;;;;;5036382;28;45329;-67
2022/01/06 10:50:11;;;;;;;;;19.00;17.50;;;;;;;;5036117;28;46282;-69
2022/01/06 10:52:39;;;;;;;;;22.25;20.75;;;;;;;;5054484;28;45287;-69
2022/01/06 10:55:25;;;;;;;;;24.75;23.00;;;;;;;;5054964;28;45385;-68
2022/01/06 10:57:53;;;;;;;;;17.75;15.75;;;;;;;;5053777;28;45467;-66
2022/01/06 11:00:19;;;;;;;;;19.25;17.00;;;;;;;;5053552;28;47100;-68
2022/01/06 11:02:45;;;;;;;;;21.00;18.75;;;;;;;;5053976;28;45441;-69
2022/01/06 11:05:10;;;;;;;;;27.00;27.00;;;;;;;;5054059;28;45392;-70
2022/01/06 11:07:35;;;;;;;;;23.00;20.50;;;;;;;;5053922;28;45601;-67
2022/01/06 11:10:02;;;;;;;;;22.25;20.25;;;;;;;;5053788;28;45284;-68
2022/01/06 11:12:27;;;;;;;;;21.50;20.00;;;;;;;;5048868;28;45444;-68
2022/01/06 11:14:53;;;;;;;;;30.75;20.00;;;;;;;;5051977;28;45814;-69
2022/01/06 11:17:21;;;;;;;;;22.25;18.75;;;;;;;;5035200;28;45582;-68
2022/01/06 11:19:47;;;;;;;;;24.25;22.75;;;;;;;;5052561;28;47327;-68
2022/01/06 11:22:13;;;;;;;;;26.25;24.50;;;;;;;;5052929;28;45421;-69
2022/01/06 11:24:39;;;;;;;;;19.25;16.00;;;;;;;;5053015;28;45254;-69
2022/01/06 11:27:10;;;;;;;;;23.25;22.25;;;;;;;;5053359;28;45394;-69
2022/01/06 11:29:42;;;;;;;;;17.25;15.75;;;;;;;;5053262;28;45506;-70
2022/01/06 11:32:24;;;;;;;;;26.50;23.25;;;;;;;;5053419;28;45472;-68
2022/01/06 11:34:50;;;;;;;;;23.75;19.25;;;;;;;;5035645;28;45840;-69
2022/01/06 11:37:16;;;;;;;;;11.50;11.00;;;;;;;;5053871;28;45358;-69
2022/01/06 11:39:42;;;;;;;;;14.25;11.00;;;;;;;;5053257;28;46144;-70
2022/01/06 11:42:18;;;;;;;;;21.75;21.00;;;;;;;;5052953;28;45634;-69
2022/01/06 11:44:50;;;;;;;;;15.00;14.25;;;;;;;;5053026;28;45436;-69
2022/01/06 11:47:16;;;;;;;;;25.25;19.25;;;;;;;;5033927;28;45507;-69
2022/01/06 11:49:42;;;;;;;;;19.50;16.75;;;;;;;;5053166;28;45422;-68
2022/01/06 11:52:07;;;;;;;;;16.75;14.25;;;;;;;;5053149;28;45328;-69
2022/01/06 11:54:33;;;;;;;;;22.50;19.75;;;;;;;;5052350;28;45424;-68
2022/01/06 11:56:58;;;;;;;;;15.25;13.75;;;;;;;;5053141;28;45336;-68
2022/01/06 11:59:33;;;;;;;;;19.00;14.25;;;;;;;;5053228;28;46446;-69
2022/01/06 12:01:59;;;;;;;;;12.75;10.75;;;;;;;;5053109;28;45494;-68
2022/01/06 12:04:25;;;;;;;;;10.00;9.00;;;;;;;;5053298;28;45474;-67
2022/01/06 12:07:01;;;;;;;;;7.50;6.75;;;;;;;;5053316;28;45343;-68
2022/01/06 12:09:26;;;;;;;;;7.25;7.00;;;;;;;;5053380;28;46084;-69
2022/01/06 12:11:59;;;;;;;;;10.25;8.75;;;;;;;;5053485;28;45431;-70
2022/01/06 12:14:25;;;;;;;;;10.25;7.50;;;;;;;;5053757;28;45467;-69
2022/01/06 12:16:50;;;;;;;;;8.00;8.00;;;;;;;;5053393;28;45427;-68
2022/01/06 12:19:20;;;;;;;;;11.75;8.75;;;;;;;;5053071;28;49255;-68
2022/01/06 12:21:46;;;;;;;;;8.75;7.75;;;;;;;;5053443;28;45353;-69
2022/01/06 12:24:12;;;;;;;;;10.50;9.00;;;;;;;;5050622;28;45462;-68
2022/01/06 12:26:39;;;;;;;;;8.50;7.00;;;;;;;;5055071;28;45378;-69
2022/01/06 12:29:10;;;;;;;;;8.25;5.25;;;;;;;;5056036;28;46178;-67
2022/01/06 12:31:35;;;;;;;;;6.50;5.00;;;;;;;;5056639;28;45403;-68
2022/01/06 12:34:02;;;;;;;;;4.25;2.75;;;;;;;;5057173;28;45171;-69
2022/01/06 12:36:31;;;;;;;;;4.75;3.50;;;;;;;;5051633;28;45263;-68
2022/01/06 12:38:57;;;;;;;;;9.50;6.75;;;;;;;;5056729;28;45371;-68
2022/01/06 12:41:27;;;;;;;;;6.50;3.50;;;;;;;;5055508;28;45441;-68
2022/01/06 12:43:55;;;;;;;;;3.50;3.50;;;;;;;;5056083;28;45447;-69
2022/01/06 12:46:20;;;;;;;;;5.50;3.50;;;;;;;;5055964;28;45409;-69
2022/01/06 12:48:49;;;;;;;;;5.00;4.00;;;;;;;;5055317;28;46313;-67
2022/01/06 12:51:19;;;;;;;;;7.25;5.75;;;;;;;;5052426;28;45309;-69
2022/01/06 12:53:45;;;;;;;;;6.50;4.50;;;;;;;;5054816;28;45434;-68
2022/01/06 12:56:30;;;;;;;;;7.00;5.75;;;;;;;;5052851;28;45474;-68
2022/01/06 12:59:00;;;;;;;;;5.75;4.75;;;;;;;;5055812;28;47183;-68
2022/01/06 13:01:25;;;;;;;;;4.25;4.25;;;;;;;;5055826;28;45502;-68
2022/01/06 13:03:53;;;;;;;;;3.00;3.00;;;;;;;;5055641;28;45551;-68
2022/01/06 13:06:19;;;;;;;;;4.50;4.50;;;;;;;;5054578;28;45508;-69
2022/01/06 13:08:48;;;;;;;;;4.00;4.00;;;;;;;;5055570;28;47129;-69
2022/01/06 13:11:13;;;;;;;;;7.00;5.00;;;;;;;;5055070;28;45263;-68
2022/01/06 13:13:45;;;;;;;;;3.50;3.25;;;;;;;;5055877;28;45306;-69
2022/01/06 13:16:11;;;;;;;;;4.50;4.00;;;;;;;;5056450;28;45332;-68
2022/01/06 13:18:37;;;;;;;;;6.00;3.00;;;;;;;;5054937;28;48008;-70
2022/01/06 13:21:02;;;;;;;;;6.75;4.50;;;;;;;;5055380;28;45371;-68
2022/01/06 13:26:06;;;;;;;;;6.75;5.75;;;;;;;;5052994;28;45567;-69
2022/01/06 13:28:32;;;;;;;;;6.25;4.50;;;;;;;;5054105;28;47251;-68
2022/01/06 13:30:57;;;;;;;;;9.00;4.00;;;;;;;;5056041;28;45251;-68
2022/01/06 13:33:23;;;;;;;;;5.50;4.50;;;;;;;;5037102;28;45345;-68
2022/01/06 13:35:53;;;;;;;;;5.25;4.00;;;;;;;;5055779;28;45465;-69
2022/01/06 13:38:26;;;;;;;;;7.25;5.75;;;;;;;;5054028;28;46267;-68
2022/01/06 13:40:53;;;;;;;;;6.25;4.75;;;;;;;;5055458;28;45467;-68
2022/01/06 13:43:19;;;;;;;;;5.25;5.00;;;;;;;;5055387;28;45301;-70
2022/01/06 13:45:47;;;;;;;;;4.00;4.00;;;;;;;;5055230;28;45214;-67
2022/01/06 13:51:07;;;;;;;;;3.00;3.00;;;;;;;;5055249;28;45395;-68
2022/01/06 13:53:35;;;;;;;;;2.50;2.50;;;;;;;;5055398;28;45541;-68
2022/01/06 13:56:05;;;;;;;;;5.50;3.00;;;;;;;;5055697;28;45359;-68
2022/01/06 13:58:31;;;;;;;;;1.75;1.75;;;;;;;;5055083;28;45273;-67
2022/01/06 14:00:56;;;;;;;;;2.00;2.00;;;;;;;;5055122;28;47746;-67
2022/01/06 14:03:22;;;;;;;;;5.75;4.00;;;;;;;;5054722;28;45206;-69
2022/01/06 14:05:48;;;;;;;;;7.50;3.75;;;;;;;;5053101;28;45501;-67
2022/01/06 14:08:13;;;;;;;;;2.00;2.00;;;;;;;;5054856;28;45441;-68
2022/01/06 14:10:40;;;;;;;;;4.00;3.75;;;;;;;;5054568;28;45448;-69
2022/01/06 14:13:05;;;;;;;;;0.00;0.00;;;;;;;;5055902;28;45478;-68
2022/01/06 14:15:30;;;;;;;;;2.00;2.00;;;;;;;;5054294;28;45383;-68
2022/01/06 14:17:55;;;;;;;;;2.00;2.00;;;;;;;;5055017;28;45601;-68
2022/01/06 14:20:21;;;;;;;;;4.00;2.50;;;;;;;;5053892;28;45555;-67
2022/01/06 14:22:46;;;;;;;;;3.50;2.25;;;;;;;;5053896;28;45450;-68
2022/01/06 14:25:11;;;;;;;;;1.75;1.75;;;;;;;;5055058;28;45512;-68
2022/01/06 14:27:36;;;;;;;;;2.50;1.75;;;;;;;;5054047;28;46254;-68
2022/01/06 14:30:02;;;;;;;;;2.00;2.00;;;;;;;;5053921;28;45427;-69
2022/01/06 14:32:27;;;;;;;;;0.75;0.75;;;;;;;;5055070;28;45898;-67